Time;durP1;ratioP1;P1;durP2;ratioP2;P2;SDS_P1;SDS_P2;PMS_P1;PMS_P2;Temp;Humidity;BMP_temperature;BMP_pressure;BME280_temperature;BME280_humidity;BME280_pressure;Samples;Min_cycle;Max_cycle;Signal;HPM_P1;HPM_P2
2021/06/01 00:01:22;;;;;;;3.75;2.67;;;13.10;93.90;;;;;;5072310;28;20073;-85
2021/06/01 00:03:48;;;;;;;3.38;2.20;;;12.90;93.80;;;;;;5072287;28;20480;-85
2021/06/01 00:06:15;;;;;;;3.38;2.60;;;12.90;94.10;;;;;;5073816;28;20063;-85
2021/06/01 00:08:41;;;;;;;4.88;2.70;;;13.00;94.00;;;;;;5073507;28;20036;-85
2021/06/01 00:11:07;;;;;;;4.18;2.47;;;12.90;94.40;;;;;;5073552;28;20476;-85
2021/06/01 00:13:34;;;;;;;4.47;2.53;;;13.10;93.70;;;;;;5072170;28;20020;-85
2021/06/01 00:16:00;;;;;;;5.97;2.70;;;13.20;93.50;;;;;;5072138;28;20036;-85
2021/06/01 00:18:26;;;;;;;3.97;2.60;;;13.20;93.60;;;;;;5073311;28;20024;-85
2021/06/01 00:20:52;;;;;;;3.25;2.58;;;13.10;93.60;;;;;;5073332;28;20031;-85
2021/06/01 00:23:18;;;;;;;4.10;2.63;;;13.10;93.20;;;;;;5072073;28;20426;-85
2021/06/01 00:25:43;;;;;;;5.63;2.70;;;12.90;93.70;;;;;;5072020;28;20024;-85
2021/06/01 00:28:09;;;;;;;4.75;2.40;;;13.00;94.10;;;;;;5072063;28;20532;-85
2021/06/01 00:30:35;;;;;;;3.55;2.35;;;12.70;93.90;;;;;;5073240;28;20496;-85
2021/06/01 00:33:00;;;;;;;3.17;2.35;;;12.70;94.00;;;;;;5073581;28;20024;-84
2021/06/01 00:35:26;;;;;;;4.20;2.50;;;12.90;94.10;;;;;;5072024;28;20480;-85
2021/06/01 00:37:52;;;;;;;4.53;2.60;;;12.90;94.20;;;;;;5073392;28;20028;-85
2021/06/01 00:40:17;;;;;;;3.95;2.50;;;12.80;93.60;;;;;;5071914;28;20125;-85
2021/06/01 00:42:43;;;;;;;2.78;2.40;;;12.70;93.90;;;;;;5071864;28;20391;-85
2021/06/01 00:45:16;;;;;;;2.92;2.47;;;12.80;94.10;;;;;;5073143;28;20472;-85
2021/06/01 00:47:42;;;;;;;3.20;2.47;;;12.90;94.00;;;;;;5071789;28;20059;-85
2021/06/01 00:50:08;;;;;;;6.05;2.25;;;12.70;93.20;;;;;;5073112;28;20044;-85
2021/06/01 00:52:34;;;;;;;3.85;2.20;;;12.10;94.30;;;;;;5073555;28;20025;-85
2021/06/01 00:54:59;;;;;;;3.67;2.40;;;12.20;95.10;;;;;;5071739;28;20020;-85
2021/06/01 00:57:25;;;;;;;3.92;2.38;;;12.30;94.80;;;;;;5072973;28;20464;-85
2021/06/01 00:59:51;;;;;;;3.28;2.55;;;12.40;94.50;;;;;;5073176;28;20029;-85
2021/06/01 01:02:16;;;;;;;3.80;2.47;;;12.20;94.40;;;;;;5071696;28;20023;-85
2021/06/01 01:04:43;;;;;;;4.82;2.72;;;12.50;94.60;;;;;;5071820;28;20094;-85
2021/06/01 01:07:20;;;;;;;3.55;2.15;;;12.70;94.70;;;;;;5071640;28;20029;-85
2021/06/01 01:09:49;;;;;;;3.30;2.40;;;12.80;94.20;;;;;;5073259;28;20020;-85
2021/06/01 01:12:23;;;;;;;4.95;2.40;;;13.10;93.50;;;;;;5074661;28;20070;-85
2021/06/01 01:14:50;;;;;;;;;;;12.70;93.70;;;;;;5075802;28;20043;-85
2021/06/01 01:17:19;;;;;;;5.80;2.35;;;12.80;93.70;;;;;;5075357;28;19954;-85
2021/06/01 01:20:17;;;;;;;4.25;2.30;;;12.60;93.70;;;;;;5076772;28;20043;-85
2021/06/01 01:22:46;;;;;;;2.92;2.10;;;12.60;94.30;;;;;;5076777;28;20021;-85
2021/06/01 01:25:22;;;;;;;5.57;2.20;;;12.60;93.60;;;;;;5075229;28;20365;-85
2021/06/01 01:28:31;;;;;;;2.60;2.30;;;12.40;94.30;;;;;;5075163;28;20472;-85
2021/06/01 01:31:02;;;;;;;3.38;2.20;;;12.40;94.30;;;;;;5074301;28;20025;-85
2021/06/01 01:33:32;;;;;;;4.78;2.53;;;12.60;94.20;;;;;;5057283;28;20037;-85
2021/06/01 01:36:05;;;;;;;3.55;2.17;;;12.90;93.50;;;;;;5065887;28;20119;-85
2021/06/01 01:38:34;;;;;;;3.00;2.30;;;12.70;93.80;;;;;;5074937;28;20111;-85
2021/06/01 01:41:04;;;;;;;2.83;2.22;;;12.70;93.50;;;;;;5076177;28;20480;-84
2021/06/01 01:43:33;;;;;;;2.75;2.10;;;12.60;94.20;;;;;;5074879;28;20024;-85
2021/06/01 01:46:14;;;;;;;2.60;1.90;;;12.80;93.70;;;;;;5076020;28;20052;-85
2021/06/01 01:49:01;;;;;;;2.47;2.28;;;12.60;93.60;;;;;;5074784;28;20027;-84
2021/06/01 01:51:32;;;;;;;3.58;2.20;;;12.60;93.60;;;;;;5074798;28;20036;-85
2021/06/01 01:54:00;;;;;;;5.68;2.30;;;12.40;93.80;;;;;;5076548;28;20496;-85
2021/06/01 01:56:37;;;;;;;3.33;2.50;;;12.30;94.40;;;;;;5074660;28;20549;-84
2021/06/01 01:59:15;;;;;;;3.63;2.10;;;12.20;94.00;;;;;;5075790;28;20020;-85
2021/06/01 02:01:43;;;;;;;3.17;2.35;;;12.20;94.90;;;;;;5075838;28;20467;-85
2021/06/01 02:04:10;;;;;;;6.75;2.45;;;12.10;94.50;;;;;;5075754;28;20017;-85
2021/06/01 02:06:36;;;;;;;3.70;2.30;;;11.90;94.60;;;;;;5074448;28;20047;-85
2021/06/01 02:09:05;;;;;;;3.75;2.35;;;12.10;95.00;;;;;;5074424;28;20028;-85
2021/06/01 02:11:31;;;;;;;2.25;1.88;;;12.00;94.60;;;;;;5074374;28;20020;-85
2021/06/01 02:14:01;;;;;;;3.03;2.35;;;12.30;94.20;;;;;;5074327;28;20028;-85
2021/06/01 02:16:27;;;;;;;4.38;2.08;;;12.50;94.40;;;;;;5074283;28;20171;-85
2021/06/01 02:18:53;;;;;;;3.05;2.00;;;12.30;94.10;;;;;;5075399;28;20366;-85
2021/06/01 02:22:04;;;;;;;2.55;2.13;;;12.20;94.00;;;;;;5075243;28;20044;-85
2021/06/01 02:24:34;;;;;;;3.72;1.95;;;12.30;94.40;;;;;;5063609;28;20483;-85
2021/06/01 02:27:03;;;;;;;2.50;2.05;;;12.60;94.00;;;;;;5074668;28;20402;-85
2021/06/01 02:29:47;;;;;;;4.50;2.03;;;12.50;93.60;;;;;;5075263;28;20021;-85
2021/06/01 02:32:15;;;;;;;4.05;2.13;;;12.20;93.80;;;;;;5075245;28;20025;-85
2021/06/01 02:34:43;;;;;;;3.25;2.00;;;12.20;94.50;;;;;;5073741;28;20049;-85
2021/06/01 02:37:09;;;;;;;2.95;2.53;;;12.20;93.90;;;;;;5075127;28;20047;-85
2021/06/01 02:39:37;;;;;;;3.97;1.92;;;12.10;94.10;;;;;;5073742;28;20033;-85
2021/06/01 02:42:04;;;;;;;3.17;2.17;;;11.70;94.90;;;;;;5075030;28;20046;-85
2021/06/01 02:44:31;;;;;;;3.67;2.17;;;11.70;94.50;;;;;;5074932;28;20028;-85
2021/06/01 02:46:59;;;;;;;3.25;2.30;;;11.70;95.00;;;;;;5073641;28;20024;-85
2021/06/01 02:49:25;;;;;;;3.08;2.10;;;11.30;95.40;;;;;;5073589;28;20499;-85
2021/06/01 02:51:54;;;;;;;3.55;2.35;;;11.60;95.60;;;;;;5074839;28;20100;-85
2021/06/01 02:54:21;;;;;;;4.85;2.17;;;11.90;94.60;;;;;;5073517;28;20032;-85
2021/06/01 02:56:50;;;;;;;2.42;2.20;;;12.00;94.90;;;;;;5073556;28;20078;-85
2021/06/01 02:59:17;;;;;;;4.45;2.60;;;12.00;94.30;;;;;;5074607;28;20024;-85
2021/06/01 03:01:47;;;;;;;3.65;2.38;;;11.60;94.20;;;;;;5074615;28;20031;-85
2021/06/01 03:04:13;;;;;;;3.90;2.45;;;11.60;95.40;;;;;;5073372;28;20025;-85
2021/06/01 03:06:43;;;;;;;2.47;2.20;;;11.60;94.60;;;;;;5074790;28;20035;-85
2021/06/01 03:09:09;;;;;;;4.55;2.50;;;11.80;95.10;;;;;;5074866;28;20077;-85
2021/06/01 03:11:35;;;;;;;4.50;2.15;;;11.70;94.30;;;;;;5074447;28;20113;-85
2021/06/01 03:14:02;;;;;;;2.13;1.92;;;11.50;94.60;;;;;;5074330;28;20024;-85
2021/06/01 03:16:27;;;;;;;4.47;2.10;;;11.50;94.70;;;;;;5074399;28;20060;-84
2021/06/01 03:18:53;;;;;;;2.75;2.20;;;11.50;95.20;;;;;;5072977;28;20144;-85
2021/06/01 03:21:19;;;;;;;6.00;2.30;;;11.60;94.60;;;;;;5074320;28;20361;-85
2021/06/01 03:23:46;;;;;;;3.60;2.38;;;11.70;95.20;;;;;;5073090;28;20024;-85
2021/06/01 03:26:12;;;;;;;2.58;2.17;;;11.50;95.00;;;;;;5074334;28;20463;-85
2021/06/01 03:28:39;;;;;;;4.93;2.00;;;11.60;95.00;;;;;;5072850;28;20032;-85
2021/06/01 03:31:06;;;;;;;5.28;2.20;;;11.60;94.50;;;;;;5074151;28;20051;-85
2021/06/01 03:33:32;;;;;;;2.33;2.10;;;11.40;95.00;;;;;;5072075;28;20051;-85
2021/06/01 03:35:58;;;;;;;3.00;2.40;;;11.60;95.10;;;;;;5072828;28;20046;-85
2021/06/01 03:38:24;;;;;;;3.03;2.10;;;11.70;94.90;;;;;;5072740;28;20466;-85
2021/06/01 03:40:50;;;;;;;6.00;2.20;;;11.30;94.50;;;;;;5073923;28;20028;-84
2021/06/01 03:43:16;;;;;;;4.10;2.55;;;11.50;95.50;;;;;;5072605;28;20105;-85
2021/06/01 03:45:42;;;;;;;5.97;2.40;;;11.50;95.30;;;;;;5073741;28;20445;-85
2021/06/01 03:48:08;;;;;;;2.97;2.10;;;11.50;95.10;;;;;;5072541;28;20060;-85
2021/06/01 03:50:34;;;;;;;3.05;2.20;;;11.40;95.00;;;;;;5073776;28;20024;-85
2021/06/01 03:53:01;;;;;;;2.28;2.00;;;11.60;95.20;;;;;;5073694;28;20024;-85
2021/06/01 03:55:26;;;;;;;3.03;2.38;;;11.70;94.90;;;;;;5072407;28;20025;-85
2021/06/01 03:57:52;;;;;;;2.88;2.22;;;11.50;94.90;;;;;;5072343;28;20437;-85
2021/06/01 04:00:22;;;;;;;3.25;2.00;;;11.60;95.20;;;;;;5072375;28;20025;-85
2021/06/01 04:02:48;;;;;;;2.38;1.85;;;11.60;95.10;;;;;;5072322;28;20024;-85
2021/06/01 04:05:14;;;;;;;3.90;2.20;;;11.60;94.50;;;;;;5072280;28;20159;-85
2021/06/01 04:07:40;;;;;;;4.82;2.22;;;11.10;95.20;;;;;;5072272;28;20032;-85
2021/06/01 04:10:07;;;;;;;4.45;2.10;;;11.20;94.80;;;;;;5072210;28;20032;-85
2021/06/01 04:12:34;;;;;;;3.40;2.00;;;11.30;95.60;;;;;;5073511;28;20032;-85
2021/06/01 04:15:00;;;;;;;3.55;2.35;;;11.40;94.90;;;;;;5073455;28;20028;-85
2021/06/01 04:17:26;;;;;;;2.30;2.05;;;11.20;95.30;;;;;;5073419;28;20361;-85
2021/06/01 04:19:51;;;;;;;3.20;2.03;;;11.20;95.30;;;;;;5072048;28;20024;-84
2021/06/01 04:22:17;;;;;;;2.97;2.20;;;11.20;96.20;;;;;;5072125;28;20472;-85
2021/06/01 04:24:43;;;;;;;5.10;2.40;;;11.60;95.20;;;;;;5072044;28;20480;-85
2021/06/01 04:27:09;;;;;;;3.13;2.00;;;11.60;94.80;;;;;;5073318;28;20437;-85
2021/06/01 04:29:34;;;;;;;2.33;2.00;;;11.60;94.80;;;;;;5073312;28;20518;-85
2021/06/01 04:32:00;;;;;;;5.20;2.40;;;11.90;94.90;;;;;;5072036;28;20395;-85
2021/06/01 04:34:26;;;;;;;6.38;2.00;;;11.90;94.40;;;;;;5071804;28;20052;-85
2021/06/01 04:36:52;;;;;;;4.25;2.30;;;11.80;94.40;;;;;;5071932;28;20111;-85
2021/06/01 04:39:17;;;;;;;4.25;2.30;;;11.80;94.50;;;;;;5071900;28;20024;-85
2021/06/01 04:41:43;;;;;;;3.25;2.00;;;12.00;94.70;;;;;;5073257;28;20430;-85
2021/06/01 04:44:09;;;;;;;4.07;2.30;;;11.90;94.60;;;;;;5071823;28;20020;-85
2021/06/01 04:46:35;;;;;;;4.20;2.13;;;12.00;94.60;;;;;;5075805;28;20020;-85
2021/06/01 04:49:01;;;;;;;2.67;2.30;;;12.10;94.60;;;;;;5075916;28;20024;-85
2021/06/01 04:51:27;;;;;;;4.03;2.28;;;11.90;94.50;;;;;;5075904;28;20387;-85
2021/06/01 04:53:58;;;;;;;3.38;2.03;;;11.70;95.30;;;;;;5075899;28;20028;-85
2021/06/01 04:56:25;;;;;;;6.45;2.30;;;11.90;94.90;;;;;;5075846;28;20035;-85
2021/06/01 04:58:51;;;;;;;4.38;2.58;;;11.80;94.70;;;;;;5077474;28;20035;-85
2021/06/01 05:01:17;;;;;;;6.20;2.63;;;11.20;95.90;;;;;;5076978;28;20016;-85
2021/06/01 05:03:42;;;;;;;11.07;2.50;;;11.00;96.40;;;;;;5076909;28;20048;-85
2021/06/01 05:06:09;;;;;;;7.03;2.40;;;10.80;96.80;;;;;;5075705;28;20032;-85
2021/06/01 05:08:35;;;;;;;3.03;2.13;;;10.80;97.50;;;;;;5076906;28;20175;-86
2021/06/01 05:11:01;;;;;;;5.47;2.55;;;11.20;96.90;;;;;;5075507;28;20025;-85
2021/06/01 05:13:27;;;;;;;4.72;2.40;;;11.40;96.60;;;;;;5077282;28;20070;-85
2021/06/01 05:15:54;;;;;;;2.42;2.15;;;11.70;96.20;;;;;;5076682;28;20471;-85
2021/06/01 05:18:19;;;;;;;3.55;2.63;;;11.60;96.60;;;;;;5076894;28;20077;-85
2021/06/01 05:20:46;;;;;;;2.78;1.98;;;11.80;96.30;;;;;;5075331;28;20120;-85
2021/06/01 05:23:13;;;;;;;2.95;2.20;;;11.70;96.60;;;;;;5075313;28;20025;-85
2021/06/01 05:25:39;;;;;;;5.00;2.30;;;11.70;97.00;;;;;;5075271;28;20395;-86
2021/06/01 05:28:05;;;;;;;2.53;2.13;;;11.60;97.30;;;;;;5076750;28;20024;-85
2021/06/01 05:30:38;;;;;;;3.00;2.17;;;11.50;97.60;;;;;;5075115;28;20095;-85
2021/06/01 05:35:31;;;;;;;3.22;2.30;;;12.00;97.10;;;;;;5076677;28;20060;-85
2021/06/01 05:37:57;;;;;;;5.38;2.28;;;12.00;96.90;;;;;;5076181;28;20023;-84
2021/06/01 05:40:23;;;;;;;4.20;2.20;;;12.20;96.90;;;;;;5076200;28;20095;-85
2021/06/01 05:42:49;;;;;;;3.95;2.13;;;12.40;96.60;;;;;;5074973;28;20107;-85
2021/06/01 05:45:14;;;;;;;2.47;2.20;;;12.70;96.20;;;;;;5076209;28;20492;-85
2021/06/01 05:47:40;;;;;;;4.03;2.38;;;12.70;96.40;;;;;;5076146;28;20024;-85
2021/06/01 05:50:06;;;;;;;6.00;2.88;;;12.70;97.30;;;;;;5075989;28;20027;-85
2021/06/01 05:52:35;;;;;;;3.90;2.30;;;12.70;97.10;;;;;;5076033;28;20025;-86
2021/06/01 05:55:03;;;;;;;2.72;2.33;;;12.70;97.40;;;;;;5074837;28;20025;-83
2021/06/01 05:57:29;;;;;;;3.65;2.15;;;12.60;97.40;;;;;;5075281;28;20028;-86
2021/06/01 05:59:55;;;;;;;9.60;2.47;;;12.70;97.30;;;;;;5074510;28;20502;-85
2021/06/01 06:02:20;;;;;;;7.03;2.38;;;12.90;97.10;;;;;;5074603;28;20086;-85
2021/06/01 06:04:46;;;;;;;9.85;2.75;;;13.20;96.20;;;;;;5075973;28;20472;-85
2021/06/01 06:07:11;;;;;;;6.72;2.70;;;13.30;96.20;;;;;;5075836;28;20490;-85
2021/06/01 06:09:37;;;;;;;4.28;2.60;;;13.30;96.10;;;;;;5074427;28;20024;-85
2021/06/01 06:12:03;;;;;;;4.57;2.50;;;13.30;96.10;;;;;;5075915;28;20487;-85
2021/06/01 06:14:29;;;;;;;5.30;2.80;;;13.50;95.70;;;;;;5074215;28;20036;-85
2021/06/01 06:16:56;;;;;;;5.10;2.50;;;13.50;95.60;;;;;;5074504;28;20457;-85
2021/06/01 06:19:23;;;;;;;3.20;2.50;;;13.60;95.50;;;;;;5074109;28;20052;-85
2021/06/01 06:21:48;;;;;;;5.43;2.60;;;13.70;95.80;;;;;;5075481;28;20032;-86
2021/06/01 06:24:14;;;;;;;7.93;2.45;;;13.90;95.10;;;;;;5075472;28;20028;-86
2021/06/01 06:26:40;;;;;;;4.57;2.40;;;14.00;94.70;;;;;;5074536;28;20043;-89
2021/06/01 06:29:05;;;;;;;5.97;2.40;;;14.00;94.30;;;;;;5074402;28;20086;-86
2021/06/01 06:31:31;;;;;;;12.10;2.97;;;14.20;94.60;;;;;;5074169;28;20024;-86
2021/06/01 06:33:58;;;;;;;19.10;2.60;;;14.20;94.90;;;;;;5075316;28;20504;-86
2021/06/01 06:36:24;;;;;;;19.95;3.08;;;14.30;94.40;;;;;;5075326;28;20027;-86
2021/06/01 06:38:49;;;;;;;15.15;2.78;;;14.40;94.50;;;;;;5074055;28;20032;-86
2021/06/01 06:41:16;;;;;;;7.00;2.85;;;14.50;94.10;;;;;;5074303;28;20365;-87
2021/06/01 06:43:49;;;;;;;17.85;2.95;;;14.50;94.00;;;;;;5074051;28;20525;-87
2021/06/01 06:46:41;;;;;;;14.70;2.60;;;14.60;93.90;;;;;;5073848;28;20036;-86
2021/06/01 06:49:03;;;;;;;24.90;2.75;;;14.80;93.60;;;;;;5074776;28;20450;-87
2021/06/01 06:51:29;;;;;;;17.50;2.63;;;14.80;93.30;;;;;;5073606;28;20058;-87
2021/06/01 06:53:57;;;;;;;15.95;2.35;;;15.00;93.40;;;;;;5073818;28;20044;-87
2021/06/01 06:56:25;;;;;;;9.07;2.72;;;15.00;92.60;;;;;;5073666;28;20507;-87
2021/06/01 06:58:51;;;;;;;20.25;2.55;;;15.10;92.90;;;;;;5073584;28;20472;-85
2021/06/01 07:01:18;;;;;;;10.23;2.47;;;15.20;92.50;;;;;;5073906;28;20017;-86
2021/06/01 07:03:44;;;;;;;9.90;2.30;;;15.30;92.20;;;;;;5073889;28;20052;-88
2021/06/01 07:06:10;;;;;;;14.38;2.38;;;15.40;92.20;;;;;;5073469;28;20060;-87
2021/06/01 07:08:36;;;;;;;9.45;2.30;;;15.60;92.00;;;;;;5072656;28;20024;-88
2021/06/01 07:11:02;;;;;;;4.82;1.80;;;15.70;91.60;;;;;;5073412;28;20106;-88
2021/06/01 07:13:40;;;;;;;7.75;1.80;;;15.80;91.00;;;;;;5074692;28;20020;-89
2021/06/01 07:16:06;;;;;;;10.52;2.17;;;16.00;89.70;;;;;;5073386;28;20032;-88
2021/06/01 07:18:35;;;;;;;8.13;1.90;;;16.00;87.80;;;;;;5073344;28;20029;-86
2021/06/01 07:21:01;;;;;;;8.57;2.10;;;16.10;86.80;;;;;;5073217;28;20444;-86
2021/06/01 07:23:28;;;;;;;10.77;1.98;;;16.10;87.40;;;;;;5077578;28;20027;-87
2021/06/01 07:25:53;;;;;;;4.43;1.70;;;16.20;86.20;;;;;;5073350;28;20024;-88
2021/06/01 07:28:19;;;;;;;6.82;1.90;;;16.30;85.80;;;;;;5073154;28;20035;-87
2021/06/01 07:30:45;;;;;;;4.88;1.92;;;16.40;85.60;;;;;;5074157;28;20024;-88
2021/06/01 07:33:11;;;;;;;8.63;1.90;;;16.40;85.20;;;;;;5072866;28;20036;-88
2021/06/01 07:35:37;;;;;;;4.07;1.80;;;16.50;85.50;;;;;;5074422;28;20037;-88
2021/06/01 07:38:03;;;;;;;2.85;1.52;;;16.60;85.30;;;;;;5072923;28;20036;-88
2021/06/01 07:40:28;;;;;;;6.13;1.95;;;16.60;84.90;;;;;;5072863;28;20037;-88
2021/06/01 07:42:56;;;;;;;6.15;1.90;;;16.60;84.80;;;;;;5072773;28;20438;-88
2021/06/01 07:45:23;;;;;;;4.85;1.98;;;16.60;85.30;;;;;;5074110;28;20487;-88
2021/06/01 07:47:49;;;;;;;5.90;1.90;;;16.70;85.40;;;;;;5072983;28;20028;-87
2021/06/01 07:50:15;;;;;;;7.25;1.90;;;16.80;84.70;;;;;;5072793;28;20387;-88
2021/06/01 07:52:41;;;;;;;5.65;1.90;;;17.00;84.50;;;;;;5073871;28;20107;-89
2021/06/01 07:55:07;;;;;;;3.65;2.10;;;17.10;83.40;;;;;;5072723;28;20063;-87
2021/06/01 07:57:33;;;;;;;6.65;1.63;;;17.10;83.90;;;;;;5073715;28;20028;-88
2021/06/01 07:59:58;;;;;;;4.13;1.60;;;17.10;84.20;;;;;;5072428;28;20082;-88
2021/06/01 08:02:24;;;;;;;5.22;1.80;;;17.20;83.20;;;;;;5072452;28;20021;-88
2021/06/01 08:04:52;;;;;;;5.15;1.95;;;17.20;82.60;;;;;;5072404;28;20426;-88
2021/06/01 08:07:18;;;;;;;2.67;1.77;;;17.40;84.10;;;;;;5073241;28;20366;-87
2021/06/01 08:09:44;;;;;;;3.03;1.27;;;17.50;82.20;;;;;;5072446;28;20027;-89
2021/06/01 08:12:10;;;;;;;9.07;1.90;;;17.60;82.00;;;;;;5072472;28;20028;-88
2021/06/01 08:14:36;;;;;;;7.68;1.88;;;17.60;82.10;;;;;;5072408;28;20028;-88
2021/06/01 08:17:03;;;;;;;2.92;1.85;;;17.80;82.50;;;;;;5073570;28;20029;-87
2021/06/01 08:19:32;;;;;;;4.80;1.50;;;17.90;81.40;;;;;;5072000;28;20028;-88
2021/06/01 08:24:24;;;;;;;6.15;1.40;;;18.10;79.70;;;;;;5073473;28;20025;-88
2021/06/01 08:26:50;;;;;;;3.00;1.52;;;18.10;79.90;;;;;;5073743;28;20511;-88
2021/06/01 08:29:16;;;;;;;8.68;1.60;;;18.20;78.20;;;;;;5073345;28;20024;-88
2021/06/01 08:31:42;;;;;;;9.00;1.52;;;18.20;76.90;;;;;;5072060;28;20418;-87
2021/06/01 08:34:09;;;;;;;4.32;1.52;;;18.10;77.40;;;;;;5072267;28;20408;-88
2021/06/01 08:36:36;;;;;;;1.92;1.40;;;18.30;78.80;;;;;;5073328;28;20074;-88
2021/06/01 08:39:03;;;;;;;4.72;1.50;;;18.40;78.40;;;;;;5073184;28;20031;-88
2021/06/01 08:41:29;;;;;;;2.30;1.52;;;18.50;75.10;;;;;;5073323;28;20417;-89
2021/06/01 08:44:00;;;;;;;3.97;1.58;;;18.40;76.70;;;;;;5073510;28;20066;-88
2021/06/01 08:46:27;;;;;;;2.28;1.50;;;18.50;76.90;;;;;;5073327;28;20151;-88
2021/06/01 08:48:54;;;;;;;2.78;1.40;;;18.70;76.60;;;;;;5073218;28;20021;-88
2021/06/01 08:51:21;;;;;;;2.03;1.23;;;18.90;78.20;;;;;;5071932;28;20115;-88
2021/06/01 08:53:55;;;;;;;5.78;1.70;;;19.00;75.60;;;;;;5073131;28;20480;-85
2021/06/01 08:56:21;;;;;;;2.03;1.33;;;19.10;72.00;;;;;;5071947;28;20028;-88
2021/06/01 08:58:49;;;;;;;2.97;1.50;;;19.10;72.80;;;;;;5071910;28;20484;-87
2021/06/01 09:01:16;;;;;;;4.00;1.50;;;19.20;73.00;;;;;;5073049;28;20021;-88
2021/06/01 09:03:51;;;;;;;8.20;1.80;;;19.30;74.40;;;;;;5071763;28;20430;-87
2021/06/01 09:22:38;;;;;;;2.55;1.40;;;20.40;69.80;;;;;;5073244;28;20021;-88
2021/06/01 09:25:41;;;;;;;5.15;1.45;;;20.50;67.60;;;;;;5073131;28;20433;-87
2021/06/01 09:28:03;;;;;;;5.63;1.40;;;20.50;68.60;;;;;;5072542;28;20391;-87
2021/06/01 09:30:45;;;;;;;3.55;1.40;;;20.50;69.60;;;;;;5071507;28;20025;-88
2021/06/01 09:33:18;;;;;;;9.70;1.80;;;20.60;68.30;;;;;;5074123;28;20470;-88
2021/06/01 09:35:44;;;;;;;2.30;1.50;;;20.70;67.90;;;;;;5075153;28;20016;-88
2021/06/01 09:38:11;;;;;;;5.15;1.48;;;21.00;66.60;;;;;;5076202;28;20029;-88
2021/06/01 09:40:38;;;;;;;5.05;1.58;;;21.00;65.70;;;;;;5076350;28;20024;-88
2021/06/01 09:43:16;;;;;;;7.72;1.17;;;21.10;64.70;;;;;;5076324;28;20020;-88
2021/06/01 09:45:43;;;;;;;5.25;1.40;;;21.10;64.90;;;;;;5075113;28;20020;-88
2021/06/01 09:48:11;;;;;;;4.13;1.30;;;21.20;65.50;;;;;;5075258;28;20037;-87
2021/06/01 09:53:27;;;;;;;2.88;1.50;;;21.10;64.50;;;;;;5077117;28;20024;-88
2021/06/01 09:55:55;;;;;;;3.45;1.75;;;21.20;64.50;;;;;;5076377;28;20074;-88
2021/06/01 09:58:28;;;;;;;2.38;1.40;;;21.60;62.60;;;;;;5075898;28;20020;-87
2021/06/01 10:00:55;;;;;;;1.48;1.30;;;21.50;62.60;;;;;;5075953;28;20070;-88
2021/06/01 10:03:23;;;;;;;4.13;1.60;;;21.80;63.20;;;;;;5075908;28;20032;-88
2021/06/01 10:05:55;;;;;;;3.33;1.33;;;21.80;61.90;;;;;;5074561;28;20051;-87
2021/06/01 10:08:26;;;;;;;5.80;1.55;;;22.00;63.40;;;;;;5074651;28;20086;-87
2021/06/01 10:10:59;;;;;;;3.80;1.27;;;22.10;59.80;;;;;;5075750;28;20515;-88
2021/06/01 10:13:27;;;;;;;2.40;1.30;;;22.20;60.30;;;;;;5074487;28;20428;-88
2021/06/01 10:15:57;;;;;;;3.97;1.30;;;22.50;60.20;;;;;;5074412;28;20031;-86
2021/06/01 10:18:29;;;;;;;2.83;1.20;;;22.60;59.60;;;;;;5075750;28;20025;-87
2021/06/01 10:20:56;;;;;;;2.60;1.70;;;22.60;59.20;;;;;;5074409;28;20427;-88
2021/06/01 10:23:33;;;;;;;4.00;1.55;;;22.70;59.60;;;;;;5075862;28;20478;-87
2021/06/01 10:26:00;;;;;;;3.67;1.30;;;22.70;59.50;;;;;;5075773;28;20082;-88
2021/06/01 10:30:56;;;;;;;2.67;1.33;;;22.90;59.70;;;;;;5075710;28;20024;-88
2021/06/01 10:33:24;;;;;;;4.22;1.65;;;22.70;59.60;;;;;;5073897;28;20044;-87
2021/06/01 10:50:22;;;;;;;2.75;1.38;;;24.20;56.40;;;;;;5075691;28;20055;-88
2021/06/01 10:53:07;;;;;;;4.07;1.30;;;23.90;55.00;;;;;;5075361;28;20483;-88
2021/06/01 10:55:58;;;;;;;2.20;1.08;;;24.00;55.40;;;;;;5073701;28;20115;-88
2021/06/01 10:58:42;;;;;;;2.10;1.40;;;23.90;56.40;;;;;;5073640;28;20059;-88
2021/06/01 11:04:13;;;;;;;2.65;1.40;;;24.20;56.10;;;;;;5074919;28;20063;-88
2021/06/01 11:07:11;;;;;;;2.78;1.35;;;24.50;55.90;;;;;;5073555;28;20385;-89
2021/06/01 11:09:37;;;;;;;7.25;1.30;;;24.20;56.10;;;;;;5073570;28;20020;-88
2021/06/01 11:12:18;;;;;;;2.78;1.30;;;24.90;53.00;;;;;;5073364;28;20027;-88
2021/06/01 11:14:58;;;;;;;3.17;1.15;;;25.00;51.70;;;;;;5074737;28;20020;-87
2021/06/01 11:17:41;;;;;;;2.10;1.23;;;25.30;51.90;;;;;;5073313;28;20029;-88
2021/06/01 11:20:08;;;;;;;1.87;1.30;;;25.20;52.10;;;;;;5073230;28;20066;-89
2021/06/01 11:22:41;;;;;;;1.88;1.30;;;25.10;52.70;;;;;;5073178;28;20023;-88
2021/06/01 11:33:36;;;;;;;4.43;1.25;;;25.50;51.70;;;;;;5073989;28;20051;-88
2021/06/01 11:36:03;;;;;;;2.08;1.10;;;25.80;50.30;;;;;;5072838;28;20116;-88
2021/06/01 11:44:18;;;;;;;3.08;1.10;;;26.20;50.00;;;;;;5074207;28;20431;-88
2021/06/01 11:46:51;;;;;;;1.40;1.05;;;26.40;49.50;;;;;;5073835;28;20024;-88
2021/06/01 11:52:01;;;;;;;4.28;1.23;;;26.40;48.40;;;;;;5074448;28;20027;-88
2021/06/01 11:54:27;;;;;;;2.53;1.23;;;26.60;49.50;;;;;;5072061;28;20484;-88
2021/06/01 11:57:04;;;;;;;2.55;1.10;;;27.00;46.70;;;;;;5072480;28;20036;-88
2021/06/01 12:18:51;;;;;;;2.05;1.30;;;27.40;47.40;;;;;;5074181;28;20055;-89
2021/06/01 12:21:32;;;;;;;1.83;1.13;;;27.30;46.70;;;;;;5073669;28;20020;-88
2021/06/01 12:24:05;;;;;;;1.80;1.05;;;27.60;46.00;;;;;;5072363;28;20070;-89
2021/06/01 12:27:26;;;;;;;3.65;1.40;;;27.10;45.90;;;;;;5074091;28;20024;-89
2021/06/01 12:32:29;;;;;;;2.17;1.17;;;27.30;46.40;;;;;;5074047;28;20077;-88
2021/06/01 13:08:47;;;;;;;1.48;1.10;;;28.00;46.50;;;;;;5077159;28;20021;-88
2021/06/01 13:19:48;;;;;;;1.58;1.15;;;29.20;44.60;;;;;;5077148;28;20039;-88
2021/06/01 13:37:02;;;;;;;5.63;1.50;;;28.60;47.90;;;;;;5077126;28;20023;-89
2021/06/01 13:47:22;;;;;;;3.67;1.50;;;28.90;45.30;;;;;;5076344;28;20071;-89
2021/06/01 13:50:04;;;;;;;1.58;1.10;;;29.50;44.40;;;;;;5076345;28;20411;-89
2021/06/01 13:52:47;;;;;;;5.90;1.70;;;29.90;43.60;;;;;;5074876;28;20024;-89
2021/06/01 13:55:22;;;;;;;1.98;1.13;;;29.60;44.80;;;;;;5074938;28;20060;-88
2021/06/01 15:22:55;;;;;;;3.10;1.05;;;28.80;44.70;;;;;;5074524;28;20094;-88
2021/06/01 15:49:29;;;;;;;2.22;1.05;;;27.40;45.50;;;;;;5074431;28;20035;-88
2021/06/01 16:14:04;;;;;;;4.15;1.50;;;24.00;49.60;;;;;;5073821;28;20025;-87
2021/06/01 16:30:17;;;;;;;7.40;1.50;;;23.10;52.70;;;;;;5074010;28;20040;-87
2021/06/01 17:05:22;;;;;;;12.55;2.42;;;22.20;52.70;;;;;;5080270;28;20032;-87
2021/06/01 17:13:09;;;;;;;3.50;1.30;;;22.00;54.00;;;;;;5080152;28;20036;-88
2021/06/01 17:15:37;;;;;;;4.10;1.40;;;22.00;54.90;;;;;;5078490;28;20048;-88
2021/06/01 17:18:14;;;;;;;3.25;1.50;;;22.00;53.80;;;;;;5079865;28;20099;-88
2021/06/01 17:37:02;;;;;;;3.97;1.30;;;21.60;54.70;;;;;;5079980;28;20445;-88
2021/06/01 17:39:28;;;;;;;4.20;1.40;;;21.60;56.00;;;;;;5078005;28;20020;-87
2021/06/01 17:41:56;;;;;;;2.80;1.35;;;21.50;56.40;;;;;;5079351;28;20442;-87
2021/06/01 17:44:24;;;;;;;5.05;1.30;;;21.40;56.50;;;;;;5078167;28;20027;-87
2021/06/01 17:46:51;;;;;;;2.95;1.45;;;21.50;57.00;;;;;;5079364;28;20035;-88
2021/06/01 17:49:26;;;;;;;2.38;1.23;;;21.40;56.30;;;;;;5078093;28;20028;-87
2021/06/01 17:51:53;;;;;;;4.10;1.60;;;21.40;57.20;;;;;;5077658;28;20116;-88
2021/06/01 17:54:28;;;;;;;5.97;1.38;;;21.40;56.90;;;;;;5074226;28;20547;-88
2021/06/01 17:56:54;;;;;;;2.33;1.30;;;21.30;57.60;;;;;;5076013;28;20472;-88
2021/06/01 17:59:20;;;;;;;10.10;1.33;;;21.20;57.40;;;;;;5075876;28;20434;-87
2021/06/01 18:01:46;;;;;;;2.92;1.45;;;21.20;58.70;;;;;;5076052;28;20386;-87
2021/06/01 18:04:15;;;;;;;2.90;1.60;;;21.10;58.20;;;;;;5075951;28;20021;-87
2021/06/01 18:06:48;;;;;;;5.00;1.35;;;21.00;58.60;;;;;;5075840;28;20020;-87
2021/06/01 19:01:52;;;;;;;4.10;1.30;;;19.80;63.60;;;;;;5074958;28;20036;-88
2021/06/01 19:50:17;;;;;;;10.68;3.80;;;17.80;76.40;;;;;;5074477;28;20595;-87
2021/06/01 19:52:46;;;;;;;11.45;2.55;;;17.60;77.50;;;;;;5072564;28;20047;-87
2021/06/01 19:55:14;;;;;;;13.73;6.85;;;17.60;77.90;;;;;;5072665;28;20074;-88
2021/06/01 19:57:39;;;;;;;7.22;3.47;;;17.60;78.50;;;;;;5072546;28;20020;-87
2021/06/01 20:00:09;;;;;;;6.13;2.50;;;17.50;79.10;;;;;;5072396;28;20031;-87
2021/06/01 20:02:35;;;;;;;8.02;2.25;;;17.30;79.50;;;;;;5074043;28;20129;-87
2021/06/01 20:05:05;;;;;;;2.97;2.08;;;17.30;80.70;;;;;;5072491;28;20020;-87
2021/06/01 20:07:31;;;;;;;8.32;2.30;;;17.20;80.70;;;;;;5072280;28;20537;-87
2021/06/01 20:09:58;;;;;;;6.20;2.15;;;17.10;80.70;;;;;;5072396;28;20020;-87
2021/06/01 20:12:24;;;;;;;7.22;2.30;;;17.10;80.60;;;;;;5072349;28;20111;-87
2021/06/01 20:14:53;;;;;;;5.72;2.30;;;17.00;81.50;;;;;;5073579;28;20541;-87
2021/06/01 20:17:38;;;;;;;5.13;2.35;;;16.90;81.90;;;;;;5071827;28;20525;-87
2021/06/01 20:20:15;;;;;;;10.63;2.63;;;16.70;82.60;;;;;;5073529;28;20536;-87